Time;durP1;ratioP1;P1;durP2;ratioP2;P2;SDS_P1;SDS_P2;PMS_P1;PMS_P2;Temp;Humidity;BMP_temperature;BMP_pressure;BME280_temperature;BME280_humidity;BME280_pressure;Samples;Min_cycle;Max_cycle;Signal;HPM_P1;HPM_P2
2023/04/21 00:02:18;;;;;;;17.90;14.00;;;;;;;7.63;100.00;96022.44;7397513;19;20375;-76
2023/04/21 00:04:45;;;;;;;14.70;12.50;;;;;;;7.56;100.00;96018.72;7397184;19;20992;-77
2023/04/21 00:07:15;;;;;;;18.33;13.50;;;;;;;7.33;100.00;95989.22;7397889;19;20349;-76
2023/04/21 00:09:42;;;;;;;17.63;15.67;;;;;;;7.36;100.00;95992.03;7399112;19;20388;-76
2023/04/21 00:12:09;;;;;;;16.50;13.50;;;;;;;7.35;100.00;95989.72;7396692;19;20374;-76
2023/04/21 00:14:36;;;;;;;17.30;14.00;;;;;;;7.38;100.00;96004.84;7397584;19;20393;-77
2023/04/21 00:17:03;;;;;;;21.17;14.20;;;;;;;7.53;100.00;96022.78;7398490;19;20388;-76
2023/04/21 00:19:30;;;;;;;15.33;13.70;;;;;;;7.41;100.00;95999.75;7397093;19;20381;-76
2023/04/21 00:22:00;;;;;;;19.30;13.50;;;;;;;7.55;100.00;96014.56;7396305;19;20361;-77
2023/04/21 00:24:27;;;;;;;19.33;15.37;;;;;;;7.38;100.00;95976.69;7398505;19;20405;-76
2023/04/21 00:26:54;;;;;;;18.10;13.70;;;;;;;7.47;100.00;96000.34;7396276;19;20406;-76
2023/04/21 00:29:21;;;;;;;16.67;13.73;;;;;;;7.44;100.00;95998.34;7400131;19;20521;-76
2023/04/21 00:31:48;;;;;;;20.10;15.57;;;;;;;7.31;100.00;95992.19;7398395;19;20341;-76
2023/04/21 00:34:15;;;;;;;19.70;14.33;;;;;;;7.35;100.00;95989.72;7396946;19;20948;-77
2023/04/21 00:36:44;;;;;;;18.67;14.57;;;;;;;7.48;100.00;96001.09;7396684;19;20466;-76
2023/04/21 00:39:11;;;;;;;18.50;14.27;;;;;;;7.40;100.00;95995.56;7398181;19;20420;-76
2023/04/21 00:41:38;;;;;;;18.30;15.87;;;;;;;7.30;100.00;95974.84;7396276;19;20802;-76
2023/04/21 00:44:07;;;;;;;18.10;15.57;;;;;;;7.54;100.00;96010.38;7397169;19;21044;-76
2023/04/21 00:46:35;;;;;;;17.50;13.87;;;;;;;7.63;100.00;96008.50;7397102;19;20365;-76
2023/04/21 00:49:06;;;;;;;21.77;14.67;;;;;;;7.50;100.00;96005.00;7398132;19;20687;-76
2023/04/21 00:51:34;;;;;;;16.47;14.50;;;;;;;7.46;100.00;95998.03;7396951;19;20401;-76
2023/04/21 00:54:04;;;;;;;21.37;14.73;;;;;;;7.54;100.00;96002.50;7396841;19;20498;-76
2023/04/21 00:56:34;;;;;;;17.20;14.50;;;;;;;7.55;100.00;96006.66;7396930;19;20340;-76
2023/04/21 00:59:01;;;;;;;20.87;15.40;;;;;;;7.44;100.00;95995.69;7397303;19;20756;-76
2023/04/21 01:01:29;;;;;;;24.77;17.73;;;;;;;7.52;100.00;96005.44;7397742;19;20341;-76
2023/04/21 01:03:59;;;;;;;19.80;15.30;;;;;;;7.33;100.00;95976.09;7397529;19;20404;-76
2023/04/21 01:06:33;;;;;;;20.87;15.23;;;;;;;7.40;100.00;95997.44;7396918;19;20369;-76
2023/04/21 01:09:01;;;;;;;21.57;16.30;;;;;;;7.49;100.00;96007.94;7395639;19;20504;-76
2023/04/21 01:11:28;;;;;;;20.13;14.77;;;;;;;7.33;100.00;95990.00;7398156;19;20448;-76
2023/04/21 01:13:55;;;;;;;18.57;14.47;;;;;;;7.41;100.00;95998.97;7395692;19;20429;-77
2023/04/21 01:16:23;;;;;;;19.07;16.13;;;;;;;7.49;100.00;96013.19;7396948;19;20738;-76
2023/04/21 01:18:52;;;;;;;19.73;15.27;;;;;;;7.22;100.00;95973.03;7396727;19;20359;-76
2023/04/21 01:21:20;;;;;;;20.37;16.43;;;;;;;7.23;100.00;95984.31;7396710;19;20393;-75
2023/04/21 01:23:47;;;;;;;22.27;16.90;;;;;;;7.38;100.00;96000.38;7396381;19;20505;-76
2023/04/21 01:26:20;;;;;;;26.73;17.00;;;;;;;7.24;100.00;95977.97;7396428;19;20389;-76
2023/04/21 01:28:48;;;;;;;18.90;15.60;;;;;;;7.23;100.00;95974.56;7394997;19;20425;-76
2023/04/21 01:31:15;;;;;;;25.00;16.73;;;;;;;7.36;100.00;95999.16;7396512;19;20373;-76
2023/04/21 01:33:44;;;;;;;19.63;14.90;;;;;;;7.13;100.00;95969.66;7394494;19;20402;-77
2023/04/21 01:36:11;;;;;;;21.10;16.67;;;;;;;7.33;100.00;95999.75;7397015;19;20401;-76
2023/04/21 01:38:39;;;;;;;20.07;15.63;;;;;;;7.33;100.00;96005.00;7394744;19;20368;-76
2023/04/21 01:41:07;;;;;;;19.97;15.10;;;;;;;7.20;100.00;95977.03;7397085;19;20401;-76
2023/04/21 01:43:35;;;;;;;23.10;16.73;;;;;;;7.27;100.00;95995.75;7395715;19;20393;-76
2023/04/21 01:46:06;;;;;;;23.10;16.13;;;;;;;7.21;100.00;95983.84;7393840;19;20384;-76
2023/04/21 01:48:35;;;;;;;23.63;17.03;;;;;;;7.31;100.00;95988.78;7395573;19;20520;-76
2023/04/21 01:51:05;;;;;;;22.63;16.43;;;;;;;7.14;100.00;95963.28;7393987;19;20395;-76
2023/04/21 01:53:32;;;;;;;19.93;16.20;;;;;;;7.30;100.00;95981.97;7395160;19;20429;-76
2023/04/21 01:56:00;;;;;;;27.40;16.40;;;;;;;7.16;100.00;95971.66;7393651;19;20376;-76
2023/04/21 01:58:29;;;;;;;22.57;17.77;;;;;;;7.33;100.00;96010.25;7394817;19;20944;-76
2023/04/21 02:00:56;;;;;;;26.53;18.47;;;;;;;7.05;100.00;95965.94;7393866;19;20349;-76
2023/04/21 02:03:23;;;;;;;27.10;19.60;;;;;;;7.15;100.00;95985.88;7395508;19;20384;-76
2023/04/21 02:05:50;;;;;;;22.33;16.73;;;;;;;7.03;100.00;95970.72;7394449;19;20392;-76
2023/04/21 02:08:17;;;;;;;20.93;16.73;;;;;;;7.22;100.00;96004.59;7404025;19;20420;-76
2023/04/21 02:10:44;;;;;;;25.33;16.00;;;;;;;7.08;100.00;95980.34;7401654;19;20384;-76
2023/04/21 02:13:11;;;;;;;20.57;16.70;;;;;;;7.07;100.00;95971.66;7403188;19;20389;-76
2023/04/21 02:15:38;;;;;;;24.27;15.80;;;;;;;7.29;100.00;96002.25;7399878;19;20432;-76
2023/04/21 02:18:07;;;;;;;21.03;17.40;;;;;;;7.26;100.00;95997.59;7402787;19;20432;-76
2023/04/21 02:20:34;;;;;;;19.20;16.93;;;;;;;7.30;100.00;95998.53;7398409;19;20773;-76
2023/04/21 02:23:01;;;;;;;22.10;16.87;;;;;;;7.16;100.00;95987.41;7402496;19;20408;-76
2023/04/21 02:25:28;;;;;;;23.10;17.33;;;;;;;7.29;100.00;96004.09;7398998;19;20409;-76
2023/04/21 02:27:55;;;;;;;24.03;16.50;;;;;;;7.14;100.00;95976.44;7402786;19;20376;-76
2023/04/21 02:30:25;;;;;;;20.30;17.10;;;;;;;7.00;100.00;95976.63;7401364;19;20405;-76
2023/04/21 02:32:52;;;;;;;21.50;17.80;;;;;;;7.06;100.00;95983.25;7402623;19;20380;-76
2023/04/21 02:35:19;;;;;;;21.20;17.93;;;;;;;6.99;100.00;95975.06;7398390;19;20952;-76
2023/04/21 02:37:46;;;;;;;25.57;18.30;;;;;;;6.87;100.00;95963.66;7402516;19;20380;-76
2023/04/21 02:40:14;;;;;;;19.87;17.30;;;;;;;6.99;100.00;95990.84;7398414;19;20929;-76
2023/04/21 02:42:41;;;;;;;26.23;18.10;;;;;;;7.02;100.00;95982.34;7402631;19;20376;-76
2023/04/21 02:45:09;;;;;;;21.00;16.70;;;;;;;7.00;100.00;95981.09;7398561;19;20484;-76
2023/04/21 02:47:36;;;;;;;21.47;16.33;;;;;;;6.94;100.00;95980.47;7402293;19;20360;-76
2023/04/21 02:50:03;;;;;;;24.53;18.47;;;;;;;7.05;100.00;95981.69;7400383;19;20394;-76
2023/04/21 02:52:35;;;;;;;21.67;16.63;;;;;;;7.19;100.00;96014.94;7398911;19;20405;-76
2023/04/21 02:55:02;;;;;;;23.77;17.93;;;;;;;6.99;100.00;95988.22;7398468;19;20424;-76
2023/04/21 02:57:29;;;;;;;22.30;14.90;;;;;;;6.92;100.00;95969.50;7399051;19;20376;-76
2023/04/21 02:59:58;;;;;;;23.90;16.07;;;;;;;6.87;100.00;95961.03;7399191;19;20389;-76
2023/04/21 03:02:25;;;;;;;22.70;17.47;;;;;;;7.16;100.00;96000.56;7399269;19;20697;-76
2023/04/21 03:04:52;;;;;;;19.50;16.67;;;;;;;6.86;100.00;95960.25;7398424;19;20968;-76
2023/04/21 03:07:20;;;;;;;23.60;16.93;;;;;;;7.09;100.00;96008.94;7398832;19;20928;-76
2023/04/21 03:09:46;;;;;;;22.93;18.37;;;;;;;6.81;100.00;95952.50;7400543;19;20965;-76
2023/04/21 03:12:13;;;;;;;20.23;15.60;;;;;;;7.16;100.00;96010.31;7398858;19;20813;-77
2023/04/21 03:14:41;;;;;;;20.57;17.30;;;;;;;6.95;100.00;95973.41;7399389;19;20495;-76
2023/04/21 03:17:07;;;;;;;21.27;16.77;;;;;;;6.99;100.00;95988.22;7399550;19;20741;-76
2023/04/21 03:19:34;;;;;;;21.50;17.90;;;;;;;6.97;100.00;95987.00;7399502;19;20858;-76
2023/04/21 03:22:01;;;;;;;23.17;17.90;;;;;;;6.94;100.00;95972.59;7398809;19;20744;-76
2023/04/21 03:24:29;;;;;;;25.50;19.83;;;;;;;7.03;100.00;95988.38;7399013;19;20420;-75
2023/04/21 03:26:56;;;;;;;21.00;16.57;;;;;;;6.85;100.00;95971.06;7399160;19;20397;-76
2023/04/21 03:29:23;;;;;;;20.93;16.60;;;;;;;7.06;100.00;95999.03;7400529;19;20419;-76
2023/04/21 03:31:50;;;;;;;24.50;17.30;;;;;;;6.91;100.00;95965.34;7398335;19;20415;-76
2023/04/21 03:34:17;;;;;;;24.93;17.63;;;;;;;6.92;100.00;95979.25;7401021;19;20444;-76
2023/04/21 03:36:44;;;;;;;21.43;16.37;;;;;;;6.87;100.00;95968.91;7398274;19;20924;-76
2023/04/21 03:39:10;;;;;;;24.60;17.47;;;;;;;6.98;100.00;95993.78;7398896;19;20377;-76
2023/04/21 03:41:46;;;;;;;25.03;18.37;;;;;;;6.94;100.00;95982.34;7398449;19;20377;-76
2023/04/21 03:44:13;;;;;;;21.60;18.03;;;;;;;6.89;100.00;95978.00;7399080;19;20436;-76
2023/04/21 03:46:40;;;;;;;21.50;15.70;;;;;;;6.91;100.00;95982.97;7398420;19;20369;-76
2023/04/21 03:49:07;;;;;;;21.07;15.97;;;;;;;6.94;100.00;95988.34;7399779;19;20383;-76
2023/04/21 03:51:34;;;;;;;20.97;17.60;;;;;;;6.83;100.00;95966.13;7398062;19;20953;-76
2023/04/21 03:54:01;;;;;;;24.93;15.93;;;;;;;6.98;100.00;95994.56;7398593;19;20491;-76
2023/04/21 03:56:28;;;;;;;22.00;16.60;;;;;;;6.71;100.00;95964.13;7399326;19;20348;-75
2023/04/21 03:58:54;;;;;;;23.60;17.93;;;;;;;6.92;100.00;95990.53;7399402;19;20412;-75
2023/04/21 04:01:21;;;;;;;24.73;17.20;;;;;;;6.88;100.00;95984.34;7398446;19;20375;-76
2023/04/21 04:03:48;;;;;;;22.40;17.83;;;;;;;6.84;100.00;95982.66;7400438;19;20398;-76
2023/04/21 04:06:15;;;;;;;21.47;16.47;;;;;;;6.64;100.00;95944.66;7399043;19;20387;-76
2023/04/21 04:08:42;;;;;;;22.03;16.20;;;;;;;6.93;100.00;95993.94;7398865;19;20458;-76
2023/04/21 04:11:09;;;;;;;21.37;17.80;;;;;;;6.70;100.00;95972.31;7398276;19;20417;-76
2023/04/21 04:13:36;;;;;;;21.43;17.37;;;;;;;6.60;100.00;95956.88;7396223;19;20376;-76
2023/04/21 04:16:03;;;;;;;27.93;17.03;;;;;;;6.82;100.00;96007.41;7400720;19;20353;-76
2023/04/21 04:18:30;;;;;;;19.53;16.83;;;;;;;6.88;100.00;95996.72;7398420;19;20373;-76
2023/04/21 04:20:57;;;;;;;22.80;15.97;;;;;;;6.69;100.00;95971.56;7411253;19;20405;-76
2023/04/21 04:23:24;;;;;;;19.20;15.30;;;;;;;6.79;100.00;95991.47;7432122;19;20364;-75
2023/04/21 04:25:51;;;;;;;18.57;15.47;;;;;;;6.73;100.00;95984.84;7409141;19;20400;-76
2023/04/21 04:28:18;;;;;;;24.60;17.90;;;;;;;6.74;100.00;95996.88;7396292;19;20401;-76
2023/04/21 04:30:45;;;;;;;25.20;18.57;;;;;;;6.76;100.00;95994.72;7399245;19;20356;-76
2023/04/21 04:33:12;;;;;;;21.43;17.73;;;;;;;6.77;100.00;95994.41;7396212;19;20384;-75
2023/04/21 04:35:39;;;;;;;21.60;18.30;;;;;;;6.87;100.00;96003.06;7395435;19;20436;-76
2023/04/21 04:38:06;;;;;;;19.33;16.50;;;;;;;6.94;100.00;96009.38;7396101;19;20471;-76
2023/04/21 04:40:33;;;;;;;21.80;15.90;;;;;;;6.99;100.00;96008.47;7395779;19;20386;-76
2023/04/21 04:43:01;;;;;;;21.37;16.20;;;;;;;6.95;100.00;96013.59;7396054;19;20398;-76
2023/04/21 04:45:31;;;;;;;18.93;15.67;;;;;;;6.99;100.00;96014.50;7397747;19;20444;-76
2023/04/21 04:47:59;;;;;;;20.43;16.37;;;;;;;7.02;100.00;96005.22;7396394;19;20426;-76
2023/04/21 04:50:26;;;;;;;23.43;15.47;;;;;;;6.97;100.00;95992.25;7397337;19;20400;-76
2023/04/21 04:52:53;;;;;;;29.90;17.23;;;;;;;7.05;100.00;95988.81;7395534;19;20893;-76
2023/04/21 04:55:21;;;;;;;22.37;16.13;;;;;;;7.02;100.00;95984.97;7395541;19;21001;-76
2023/04/21 04:57:47;;;;;;;19.23;16.13;;;;;;;7.09;100.00;95987.13;7395897;19;20463;-76
2023/04/21 05:00:15;;;;;;;26.83;16.07;;;;;;;7.09;100.00;95987.91;7396786;19;20856;-76
2023/04/21 05:02:41;;;;;;;24.10;17.00;;;;;;;7.25;100.00;96011.84;7395683;19;20386;-76
2023/04/21 05:05:09;;;;;;;20.23;16.10;;;;;;;7.33;100.00;96028.69;7396087;19;20443;-76
2023/04/21 05:07:36;;;;;;;22.03;16.73;;;;;;;7.21;100.00;95991.72;7395583;19;20741;-76
2023/04/21 05:10:03;;;;;;;16.83;15.03;;;;;;;7.30;100.00;96003.00;7397756;19;20479;-76
2023/04/21 05:12:33;;;;;;;20.33;16.67;;;;;;;7.51;100.00;96034.69;7397770;19;20464;-76
2023/04/21 05:15:00;;;;;;;19.07;15.47;;;;;;;7.50;100.00;96023.41;7396374;19;20440;-76
2023/04/21 05:17:27;;;;;;;17.73;15.70;;;;;;;7.54;100.00;96026.94;7395367;19;20718;-76
2023/04/21 05:19:54;;;;;;;22.00;16.57;;;;;;;7.49;100.00;96013.97;7397848;19;20366;-76
2023/04/21 05:22:21;;;;;;;25.87;17.20;;;;;;;7.35;100.00;95989.72;7395552;19;20483;-76
2023/04/21 05:24:48;;;;;;;20.77;17.70;;;;;;;7.57;100.00;96005.25;7396847;19;20397;-76
2023/04/21 05:27:15;;;;;;;17.97;15.43;;;;;;;7.72;100.00;96025.78;7395845;19;20377;-76
2023/04/21 05:29:42;;;;;;;20.50;16.73;;;;;;;7.75;100.00;96028.91;7396880;19;20738;-77
2023/04/21 05:32:11;;;;;;;19.03;16.50;;;;;;;7.79;100.00;96027.94;7395000;19;20416;-77
2023/04/21 05:34:38;;;;;;;23.47;15.83;;;;;;;7.84;100.00;96011.22;7396097;19;20436;-77
2023/04/21 05:37:05;;;;;;;18.03;14.30;;;;;;;7.34;100.00;95944.22;7395468;19;20379;-77
2023/04/21 05:39:31;;;;;;;17.83;14.80;;;;;;;7.90;100.00;96036.28;7395859;19;20929;-77
2023/04/21 05:41:58;;;;;;;21.33;16.60;;;;;;;7.86;100.00;96025.59;7393118;19;20380;-77
2023/04/21 05:44:25;;;;;;;22.57;16.17;;;;;;;8.05;100.00;96038.38;7392752;19;20424;-77
2023/04/21 05:46:52;;;;;;;23.83;15.23;;;;;;;7.98;100.00;96022.28;7394916;19;20444;-76
2023/04/21 05:49:19;;;;;;;18.40;15.73;;;;;;;8.06;100.00;96029.41;7393103;19;20456;-77
2023/04/21 05:51:46;;;;;;;17.17;14.67;;;;;;;8.08;100.00;96035.13;7395407;19;20385;-76
2023/04/21 05:54:13;;;;;;;19.63;16.77;;;;;;;8.14;100.00;96022.53;7392240;19;20973;-77
2023/04/21 05:56:40;;;;;;;22.20;16.80;;;;;;;8.24;100.00;96028.22;7394503;19;20424;-76
2023/04/21 05:59:07;;;;;;;23.30;15.77;;;;;;;7.93;100.00;95972.47;7392770;19;20752;-77
2023/04/21 06:01:34;;;;;;;18.63;14.87;;;;;;;8.14;100.00;96001.47;7393443;19;20476;-77
2023/04/21 06:04:01;;;;;;;19.73;14.93;;;;;;;8.45;100.00;96038.81;7393290;19;20416;-76
2023/04/21 06:06:29;;;;;;;20.40;14.03;;;;;;;8.41;100.00;96019.47;7395853;19;20356;-77
2023/04/21 06:08:56;;;;;;;24.80;15.40;;;;;;;8.60;100.00;96024.31;7394957;19;20368;-78
2023/04/21 06:11:23;;;;;;;24.43;15.20;;;;;;;8.71;100.00;96043.94;7395998;19;20452;-77
2023/04/21 06:13:52;;;;;;;20.23;14.77;;;;;;;8.48;100.00;96005.81;7394470;19;20416;-78
2023/04/21 06:16:19;;;;;;;19.30;15.27;;;;;;;8.68;100.00;96041.94;7395891;19;20404;-78
2023/04/21 06:18:46;;;;;;;15.90;14.03;;;;;;;8.71;100.00;96030.75;7395336;19;20632;-77
2023/04/21 06:21:13;;;;;;;22.43;16.40;;;;;;;9.00;100.00;96044.97;7396448;19;20445;-78
2023/04/21 06:23:41;;;;;;;21.47;14.60;;;;;;;8.89;100.00;95990.00;7394293;19;20698;-78
2023/04/21 06:26:08;;;;;;;16.30;14.60;;;;;;;9.43;100.00;96050.63;7396480;19;20341;-77
2023/04/21 06:28:35;;;;;;;20.20;15.20;;;;;;;9.48;100.00;96026.69;7394557;19;20610;-77
2023/04/21 06:31:03;;;;;;;17.97;13.87;;;;;;;9.84;100.00;96056.13;7395834;19;20799;-77
2023/04/21 06:33:33;;;;;;;16.97;15.17;;;;;;;9.62;100.00;96050.16;7392383;19;20385;-76
2023/04/21 06:36:00;;;;;;;15.23;12.93;;;;;;;9.58;100.00;96030.78;7395457;19;20349;-76
2023/04/21 06:38:27;;;;;;;18.80;13.43;;;;;;;9.73;100.00;96053.91;7392618;19;20416;-77
2023/04/21 06:40:54;;;;;;;15.93;13.60;;;;;;;9.72;100.00;96044.44;7392520;19;20382;-76
2023/04/21 06:43:21;;;;;;;19.70;13.30;;;;;;;9.36;100.00;96013.47;7393539;19;20353;-76
2023/04/21 06:45:48;;;;;;;16.23;12.80;;;;;;;9.99;100.00;96053.63;7392802;19;20408;-76
2023/04/21 06:48:15;;;;;;;15.10;13.50;;;;;;;9.68;100.00;96024.31;7392240;19;20401;-76
2023/04/21 06:50:43;;;;;;;16.33;13.47;;;;;;;9.56;100.00;95992.63;7395476;19;20901;-76
2023/04/21 06:53:10;;;;;;;19.27;13.17;;;;;;;10.23;100.00;96046.84;7399305;19;20736;-76
2023/04/21 06:55:40;;;;;;;15.77;13.70;;;;;;;10.02;100.00;96023.16;7398965;19;20433;-77
2023/04/21 06:58:07;;;;;;;14.47;12.97;;;;;;;10.18;100.00;96047.81;7404787;19;20720;-77
2023/04/21 07:00:34;;;;;;;14.77;12.90;;;;;;;10.03;100.00;96029.97;7400645;19;20388;-76
2023/04/21 07:03:01;;;;;;;16.33;13.83;;;;;;;10.38;100.00;96048.03;7399281;19;20908;-76
2023/04/21 07:05:28;;;;;;;12.73;11.43;;;;;;;10.80;100.00;96059.13;7400297;19;20731;-76
2023/04/21 07:07:58;;;;;;;14.97;13.07;;;;;;;10.54;100.00;96033.81;7399729;19;20443;-76
2023/04/21 07:10:26;;;;;;;16.00;13.03;;;;;;;10.43;100.00;96061.06;7398353;19;20392;-77
2023/04/21 07:12:53;;;;;;;16.43;11.90;;;;;;;10.66;100.00;96056.81;7401217;19;20356;-76
2023/04/21 07:15:20;;;;;;;15.70;13.50;;;;;;;10.75;100.00;96038.19;7397591;19;20432;-76
2023/04/21 07:17:47;;;;;;;14.73;11.40;;;;;;;10.58;100.00;96033.94;7400907;19;20603;-77
2023/04/21 07:20:14;;;;;;;14.73;11.57;;;;;;;10.64;100.00;96037.88;7397756;19;20376;-76
2023/04/21 07:22:40;;;;;;;15.13;11.87;;;;;;;10.86;100.00;96044.56;7399631;19;20372;-76
2023/04/21 07:25:08;;;;;;;17.50;12.77;;;;;;;10.60;100.00;96021.94;7396366;19;20433;-77
2023/04/21 07:27:35;;;;;;;19.20;13.37;;;;;;;11.28;100.00;96052.94;7398617;19;20870;-76
2023/04/21 07:30:04;;;;;;;17.37;13.60;;;;;;;11.12;100.00;96039.66;7399564;19;20815;-77
2023/04/21 07:32:32;;;;;;;15.10;12.93;;;;;;;11.65;100.00;96050.88;7399277;19;20396;-76
2023/04/21 07:35:00;;;;;;;14.20;12.53;;;;;;;11.99;100.00;96038.13;7398082;19;20468;-77
2023/04/21 07:37:27;;;;;;;24.03;12.60;;;;;;;11.93;100.00;96029.66;7400251;19;20393;-77
2023/04/21 07:39:54;;;;;;;12.67;11.37;;;;;;;11.90;100.00;96014.47;7398334;19;20940;-76
2023/04/21 07:42:21;;;;;;;14.87;13.00;;;;;;;12.03;100.00;96041.66;7399283;19;20377;-77
2023/04/21 07:44:48;;;;;;;13.03;11.80;;;;;;;11.49;100.00;96037.63;7398249;19;20472;-77
2023/04/21 07:47:15;;;;;;;16.73;11.07;;;;;;;11.58;100.00;96044.63;7427239;19;20388;-76
2023/04/21 07:49:42;;;;;;;12.90;11.60;;;;;;;11.91;100.00;96036.44;7417314;19;20389;-77
2023/04/21 07:52:09;;;;;;;14.30;12.40;;;;;;;12.35;100.00;96053.75;7399276;19;20704;-77
2023/04/21 07:54:36;;;;;;;13.90;11.37;;;;;;;12.30;100.00;96056.69;7397304;19;20428;-77
2023/04/21 07:57:03;;;;;;;14.30;11.93;;;;;;;11.63;100.00;96041.75;7399397;19;20372;-77
2023/04/21 07:59:30;;;;;;;14.03;10.07;;;;;;;11.89;100.00;96028.81;7397278;19;20353;-77
2023/04/21 08:01:57;;;;;;;17.50;11.63;;;;;;;11.48;100.00;96043.25;7397342;19;20452;-76
2023/04/21 08:04:24;;;;;;;14.23;12.47;;;;;;;11.35;100.00;96033.81;7394584;19;20424;-77
2023/04/21 08:06:51;;;;;;;14.43;11.60;;;;;;;11.44;100.00;96027.25;7398727;19;20981;-76
2023/04/21 08:09:18;;;;;;;15.00;10.80;;;;;;;11.98;100.00;96055.13;7399168;19;20349;-76
2023/04/21 08:11:46;;;;;;;11.73;10.53;;;;;;;12.48;100.00;96051.78;7398548;19;20385;-77
2023/04/21 08:14:27;;;;;;;13.73;11.17;;;;;;;11.87;100.00;96041.63;7397005;19;20423;-76
2023/04/21 08:16:54;;;;;;;18.50;11.17;;;;;;;12.38;100.00;96037.16;7397566;19;20377;-78
2023/04/21 08:19:23;;;;;;;15.03;11.00;;;;;;;12.62;100.00;96062.69;7399502;19;20420;-77
2023/04/21 08:21:50;;;;;;;17.90;10.80;;;;;;;11.89;100.00;96033.34;7394490;19;20412;-77
2023/04/21 08:24:16;;;;;;;12.60;10.03;;;;;;;12.35;100.00;96026.47;7396705;19;20440;-77
2023/04/21 08:26:44;;;;;;;12.83;11.47;;;;;;;12.40;100.00;96034.94;7397687;19;20349;-77
2023/04/21 08:29:12;;;;;;;11.73;10.50;;;;;;;12.26;100.00;96055.81;7397700;19;20392;-77
2023/04/21 08:31:39;;;;;;;16.37;10.90;;;;;;;12.13;100.00;96041.88;7395879;19;20389;-77
2023/04/21 08:34:06;;;;;;;14.63;11.20;;;;;;;12.05;100.00;96044.72;7396971;19;20438;-76
2023/04/21 08:36:33;;;;;;;16.10;10.13;;;;;;;12.72;100.00;96062.19;7396147;19;20389;-77
2023/04/21 08:39:00;;;;;;;14.23;9.97;;;;;;;12.71;100.00;96033.34;7396987;19;20948;-76
2023/04/21 08:41:27;;;;;;;13.90;10.77;;;;;;;12.72;100.00;96050.78;7394689;19;20380;-77
2023/04/21 08:43:54;;;;;;;12.00;10.50;;;;;;;12.61;100.00;96021.38;7396539;19;20412;-77
2023/04/21 08:46:21;;;;;;;11.20;9.70;;;;;;;13.52;100.00;96050.16;7396044;19;20381;-77
2023/04/21 08:48:48;;;;;;;11.90;9.43;;;;;;;13.40;100.00;96041.56;7397572;19;20919;-77
2023/04/21 08:51:26;;;;;;;10.97;9.83;;;;;;;13.55;100.00;96052.09;7396024;19;20397;-77
2023/04/21 08:53:54;;;;;;;11.23;8.83;;;;;;;13.57;100.00;96025.97;7397642;19;20853;-77
2023/04/21 08:56:21;;;;;;;14.07;9.07;;;;;;;13.95;100.00;96063.44;7397304;19;20828;-77
2023/04/21 08:58:47;;;;;;;10.03;8.80;;;;;;;14.08;100.00;96032.88;7398946;19;20345;-77
2023/04/21 09:01:14;;;;;;;11.23;8.33;;;;;;;14.23;100.00;96057.81;7397283;19;20743;-77
2023/04/21 09:03:41;;;;;;;12.00;8.00;;;;;;;13.70;100.00;96031.88;7397993;19;20396;-77
2023/04/21 09:06:11;;;;;;;9.13;8.20;;;;;;;14.10;100.00;96062.53;7396209;19;20376;-77
2023/04/21 09:08:43;;;;;;;12.67;8.60;;;;;;;14.49;100.00;96055.97;7397214;19;20349;-77
2023/04/21 09:11:13;;;;;;;10.27;8.60;;;;;;;14.25;100.00;96064.31;7396787;19;20750;-77
2023/04/21 09:13:42;;;;;;;11.53;8.93;;;;;;;14.29;100.00;96024.47;7395871;19;20373;-77
2023/04/21 09:16:20;;;;;;;9.40;8.40;;;;;;;14.75;100.00;96049.13;7398499;19;20388;-77
2023/04/21 09:18:48;;;;;;;9.10;8.20;;;;;;;14.58;100.00;96029.13;7395747;19;20397;-77
2023/04/21 09:21:17;;;;;;;12.60;8.97;;;;;;;14.38;100.00;96063.00;7396038;19;20376;-77
2023/04/21 09:23:50;;;;;;;9.33;8.40;;;;;;;14.20;100.00;96057.41;7394747;19;20404;-76
2023/04/21 09:26:18;;;;;;;9.33;8.37;;;;;;;14.42;100.00;96037.22;7397475;19;20771;-77
2023/04/21 09:28:47;;;;;;;8.77;7.40;;;;;;;14.35;100.00;96031.78;7395094;19;21002;-77
2023/04/21 09:31:19;;;;;;;8.90;7.70;;;;;;;14.42;100.00;96049.75;7397369;19;20862;-77
2023/04/21 09:33:52;;;;;;;9.10;7.57;;;;;;;14.65;100.00;96060.38;7397526;19;20390;-77
2023/04/21 09:36:27;;;;;;;11.40;7.63;;;;;;;14.54;100.00;96044.25;7395582;19;20994;-77
2023/04/21 09:39:00;;;;;;;7.73;6.90;;;;;;;14.44;100.00;96063.50;7396268;19;20408;-77
2023/04/21 09:41:31;;;;;;;7.73;7.07;;;;;;;14.57;100.00;96064.84;7393379;19;20360;-77
2023/04/21 09:44:03;;;;;;;9.77;6.37;;;;;;;14.60;100.00;96058.78;7395074;19;20414;-77
2023/04/21 09:46:35;;;;;;;9.37;7.10;;;;;;;14.74;100.00;96056.34;7393991;19;20389;-77
2023/04/21 09:49:04;;;;;;;7.43;6.17;;;;;;;14.56;100.00;96026.06;7397498;19;20718;-77
2023/04/21 09:51:32;;;;;;;7.30;6.60;;;;;;;15.07;100.00;96042.31;7395927;19;20377;-77
2023/04/21 09:54:14;;;;;;;5.70;5.20;;;;;;;14.52;100.00;96003.16;7395305;19;20990;-77
2023/04/21 09:57:01;;;;;;;9.90;6.00;;;;;;;15.25;100.00;96061.19;7397005;19;20372;-77
2023/04/21 09:59:31;;;;;;;5.90;5.30;;;;;;;14.91;100.00;96043.63;7394129;19;20472;-76
2023/04/21 10:01:59;;;;;;;8.30;5.83;;;;;;;14.78;100.00;96045.72;7397008;19;20370;-77
2023/04/21 10:04:29;;;;;;;4.73;4.33;;;;;;;14.89;100.00;96065.28;7393929;19;20798;-77
2023/04/21 10:06:59;;;;;;;7.43;6.20;;;;;;;14.67;100.00;96052.78;7396811;19;20461;-77
2023/04/21 10:09:34;;;;;;;9.90;6.17;;;;;;;15.08;100.00;96038.50;7394725;19;20429;-77
2023/04/21 10:12:03;;;;;;;9.87;5.53;;;;;;;14.74;100.00;96002.34;7392850;19;20385;-77
2023/04/21 10:14:31;;;;;;;5.80;4.90;;;;;;;14.99;99.28;96051.34;7396249;19;20417;-77
2023/04/21 10:17:06;;;;;;;7.00;4.73;;;;;;;15.23;99.07;96052.78;7395524;19;20344;-77
2023/04/21 10:19:38;;;;;;;5.50;5.00;;;;;;;15.43;100.00;96052.63;7395190;19;20416;-77
2023/04/21 10:22:07;;;;;;;7.83;5.77;;;;;;;15.81;100.00;96049.63;7392891;19;20372;-77
2023/04/21 10:24:41;;;;;;;5.13;4.73;;;;;;;15.27;99.30;96028.84;7395589;19;20429;-77
2023/04/21 10:27:10;;;;;;;5.87;5.10;;;;;;;15.30;96.30;96055.53;7397161;19;20794;-76
2023/04/21 10:29:38;;;;;;;5.47;4.53;;;;;;;15.28;95.15;96036.47;7405156;19;20480;-76
2023/04/21 10:32:44;;;;;;;6.73;5.80;;;;;;;15.34;94.37;96027.00;7402466;19;20736;-77
2023/04/21 10:35:21;;;;;;;6.00;5.50;;;;;;;15.41;95.19;96047.66;7399426;19;20515;-77
2023/04/21 10:37:50;;;;;;;5.87;5.37;;;;;;;15.65;95.75;96017.88;7403386;19;20417;-77
2023/04/21 10:40:29;;;;;;;4.83;4.40;;;;;;;16.02;95.77;96050.94;7401549;19;20448;-77
2023/04/21 10:43:42;;;;;;;6.33;5.73;;;;;;;15.55;96.14;96031.06;7398938;19;20385;-77
2023/04/21 10:46:34;;;;;;;8.70;6.53;;;;;;;15.43;97.58;96024.06;7400429;19;20470;-77
2023/04/21 10:49:19;;;;;;;6.47;5.57;;;;;;;15.17;97.21;96032.16;7402883;19;20466;-77
2023/04/21 10:52:07;;;;;;;6.70;5.20;;;;;;;15.19;98.22;96013.91;7401299;19;20456;-76
2023/04/21 10:54:44;;;;;;;9.77;5.60;;;;;;;15.72;98.62;96025.16;7400936;19;20404;-77
2023/04/21 10:57:14;;;;;;;7.60;5.30;;;;;;;15.46;97.20;95978.03;7402800;19;20468;-77
2023/04/21 10:59:41;;;;;;;6.73;5.73;;;;;;;16.18;97.39;96014.13;7402565;19;20377;-77
2023/04/21 11:02:17;;;;;;;6.90;6.30;;;;;;;16.34;95.50;95993.28;7435495;19;20373;-75
2023/04/21 11:04:50;;;;;;;12.17;6.10;;;;;;;16.91;95.49;96027.56;7416875;19;20924;-77
2023/04/21 11:07:22;;;;;;;5.80;5.20;;;;;;;16.80;94.72;96001.56;7401132;19;20384;-77
2023/04/21 11:10:15;;;;;;;6.03;5.47;;;;;;;16.69;94.18;96016.78;7400302;19;20381;-77
2023/04/21 11:12:42;;;;;;;5.97;5.47;;;;;;;16.27;93.44;95985.22;7399584;19;20853;-77
2023/04/21 11:15:12;;;;;;;6.30;4.90;;;;;;;17.13;93.38;96011.28;7400717;19;20973;-76
2023/04/21 11:17:42;;;;;;;5.60;4.63;;;;;;;17.59;89.78;95991.16;7399321;19;20377;-77
2023/04/21 11:20:09;;;;;;;9.57;5.53;;;;;;;17.11;89.74;95984.19;7398473;19;20373;-77
2023/04/21 11:22:37;;;;;;;4.63;4.20;;;;;;;17.06;88.64;96000.56;7398527;19;20404;-76
2023/04/21 11:25:04;;;;;;;5.40;4.70;;;;;;;17.31;88.69;95991.84;7396809;19;20448;-77
2023/04/21 11:27:31;;;;;;;6.90;4.60;;;;;;;17.26;87.24;95979.63;7400257;19;20735;-77